sensor_id;sensor_type;location;lat;lon;timestamp;P1;durP1;ratioP1;P2;durP2;ratioP2
61358;SDS011;47228;46.762;23.598;2024-01-30T00:01:43;47.50;;;25.80;;
61358;SDS011;47228;46.762;23.598;2024-01-30T00:04:12;48.10;;;26.20;;
61358;SDS011;47228;46.762;23.598;2024-01-30T00:06:40;53.90;;;27.40;;
61358;SDS011;47228;46.762;23.598;2024-01-30T00:09:08;50.60;;;25.90;;
61358;SDS011;47228;46.762;23.598;2024-01-30T00:11:38;63.70;;;28.80;;
61358;SDS011;47228;46.762;23.598;2024-01-30T00:14:06;59.20;;;29.70;;
61358;SDS011;47228;46.762;23.598;2024-01-30T00:16:34;59.40;;;30.70;;
61358;SDS011;47228;46.762;23.598;2024-01-30T00:19:02;83.20;;;38.40;;
61358;SDS011;47228;46.762;23.598;2024-01-30T00:21:31;73.30;;;36.60;;
61358;SDS011;47228;46.762;23.598;2024-01-30T00:23:59;69.20;;;33.40;;
61358;SDS011;47228;46.762;23.598;2024-01-30T00:26:27;62.90;;;29.70;;
61358;SDS011;47228;46.762;23.598;2024-01-30T00:28:55;57.90;;;31.20;;
61358;SDS011;47228;46.762;23.598;2024-01-30T00:31:23;66.00;;;33.20;;
61358;SDS011;47228;46.762;23.598;2024-01-30T00:33:51;71.90;;;34.70;;
61358;SDS011;47228;46.762;23.598;2024-01-30T00:36:20;55.60;;;29.30;;
61358;SDS011;47228;46.762;23.598;2024-01-30T00:38:48;49.30;;;26.10;;
61358;SDS011;47228;46.762;23.598;2024-01-30T00:41:19;49.00;;;27.00;;
61358;SDS011;47228;46.762;23.598;2024-01-30T00:43:47;52.80;;;27.40;;
61358;SDS011;47228;46.762;23.598;2024-01-30T00:46:15;49.20;;;25.70;;
61358;SDS011;47228;46.762;23.598;2024-01-30T00:48:44;59.80;;;29.10;;
61358;SDS011;47228;46.762;23.598;2024-01-30T00:51:12;55.50;;;29.60;;
61358;SDS011;47228;46.762;23.598;2024-01-30T00:53:40;61.70;;;32.10;;
61358;SDS011;47228;46.762;23.598;2024-01-30T00:56:09;60.00;;;30.70;;
61358;SDS011;47228;46.762;23.598;2024-01-30T00:58:40;53.00;;;28.90;;
61358;SDS011;47228;46.762;23.598;2024-01-30T01:01:08;68.70;;;33.10;;
61358;SDS011;47228;46.762;23.598;2024-01-30T01:03:38;61.60;;;31.40;;
61358;SDS011;47228;46.762;23.598;2024-01-30T01:06:08;61.30;;;29.60;;
61358;SDS011;47228;46.762;23.598;2024-01-30T01:08:36;96.70;;;41.40;;
61358;SDS011;47228;46.762;23.598;2024-01-30T01:11:05;100.10;;;41.80;;
61358;SDS011;47228;46.762;23.598;2024-01-30T01:13:33;70.20;;;34.30;;
61358;SDS011;47228;46.762;23.598;2024-01-30T01:16:01;70.90;;;32.60;;
61358;SDS011;47228;46.762;23.598;2024-01-30T01:18:29;49.20;;;26.60;;
61358;SDS011;47228;46.762;23.598;2024-01-30T01:20:57;59.80;;;28.20;;
61358;SDS011;47228;46.762;23.598;2024-01-30T01:23:25;47.90;;;25.00;;
61358;SDS011;47228;46.762;23.598;2024-01-30T01:25:53;50.90;;;24.80;;
61358;SDS011;47228;46.762;23.598;2024-01-30T01:28:26;42.20;;;23.10;;
61358;SDS011;47228;46.762;23.598;2024-01-30T01:30:54;44.90;;;23.90;;
61358;SDS011;47228;46.762;23.598;2024-01-30T01:33:27;47.90;;;25.20;;
61358;SDS011;47228;46.762;23.598;2024-01-30T01:35:55;45.40;;;24.40;;
61358;SDS011;47228;46.762;23.598;2024-01-30T01:38:23;45.90;;;24.50;;
61358;SDS011;47228;46.762;23.598;2024-01-30T01:40:51;44.20;;;24.20;;
61358;SDS011;47228;46.762;23.598;2024-01-30T01:43:19;47.40;;;24.40;;
61358;SDS011;47228;46.762;23.598;2024-01-30T01:45:47;45.30;;;23.50;;
61358;SDS011;47228;46.762;23.598;2024-01-30T01:48:16;47.00;;;23.60;;
61358;SDS011;47228;46.762;23.598;2024-01-30T01:50:44;52.60;;;26.90;;
61358;SDS011;47228;46.762;23.598;2024-01-30T01:53:12;53.60;;;29.30;;
61358;SDS011;47228;46.762;23.598;2024-01-30T01:55:41;64.00;;;33.30;;
61358;SDS011;47228;46.762;23.598;2024-01-30T01:58:09;53.60;;;27.60;;
61358;SDS011;47228;46.762;23.598;2024-01-30T02:00:41;70.20;;;35.40;;
61358;SDS011;47228;46.762;23.598;2024-01-30T02:03:10;109.60;;;46.90;;
61358;SDS011;47228;46.762;23.598;2024-01-30T02:05:40;69.40;;;33.30;;
61358;SDS011;47228;46.762;23.598;2024-01-30T02:08:10;55.20;;;29.50;;
61358;SDS011;47228;46.762;23.598;2024-01-30T02:10:38;55.30;;;28.80;;
61358;SDS011;47228;46.762;23.598;2024-01-30T02:13:06;51.90;;;28.40;;
61358;SDS011;47228;46.762;23.598;2024-01-30T02:15:34;55.00;;;28.30;;
61358;SDS011;47228;46.762;23.598;2024-01-30T02:18:02;46.10;;;26.00;;
61358;SDS011;47228;46.762;23.598;2024-01-30T02:20:30;59.70;;;31.30;;
61358;SDS011;47228;46.762;23.598;2024-01-30T02:23:01;51.60;;;28.40;;
61358;SDS011;47228;46.762;23.598;2024-01-30T02:25:37;55.80;;;31.80;;
61358;SDS011;47228;46.762;23.598;2024-01-30T02:28:12;100.70;;;47.10;;
61358;SDS011;47228;46.762;23.598;2024-01-30T02:30:44;68.00;;;36.00;;
61358;SDS011;47228;46.762;23.598;2024-01-30T02:33:13;83.00;;;41.00;;
61358;SDS011;47228;46.762;23.598;2024-01-30T02:35:41;59.10;;;31.20;;
61358;SDS011;47228;46.762;23.598;2024-01-30T02:38:09;59.00;;;31.30;;
61358;SDS011;47228;46.762;23.598;2024-01-30T02:40:38;57.80;;;31.50;;
61358;SDS011;47228;46.762;23.598;2024-01-30T02:43:06;53.40;;;29.10;;
61358;SDS011;47228;46.762;23.598;2024-01-30T02:45:34;50.00;;;28.60;;
61358;SDS011;47228;46.762;23.598;2024-01-30T02:48:02;54.50;;;26.90;;
61358;SDS011;47228;46.762;23.598;2024-01-30T02:50:30;47.70;;;27.20;;
61358;SDS011;47228;46.762;23.598;2024-01-30T02:52:59;115.00;;;37.20;;
61358;SDS011;47228;46.762;23.598;2024-01-30T02:55:27;71.80;;;30.70;;
61358;SDS011;47228;46.762;23.598;2024-01-30T02:57:55;60.70;;;30.50;;
61358;SDS011;47228;46.762;23.598;2024-01-30T03:00:23;72.90;;;30.70;;
61358;SDS011;47228;46.762;23.598;2024-01-30T03:02:51;52.70;;;27.80;;
61358;SDS011;47228;46.762;23.598;2024-01-30T03:05:19;56.20;;;31.60;;
61358;SDS011;47228;46.762;23.598;2024-01-30T03:07:48;50.90;;;28.10;;
61358;SDS011;47228;46.762;23.598;2024-01-30T03:10:16;50.00;;;27.70;;
61358;SDS011;47228;46.762;23.598;2024-01-30T03:12:44;50.00;;;27.90;;
61358;SDS011;47228;46.762;23.598;2024-01-30T03:15:12;47.40;;;26.50;;
61358;SDS011;47228;46.762;23.598;2024-01-30T03:17:40;47.90;;;26.10;;
61358;SDS011;47228;46.762;23.598;2024-01-30T03:20:09;52.80;;;27.40;;
61358;SDS011;47228;46.762;23.598;2024-01-30T03:22:38;57.90;;;28.70;;
61358;SDS011;47228;46.762;23.598;2024-01-30T03:25:06;48.10;;;26.20;;
61358;SDS011;47228;46.762;23.598;2024-01-30T03:27:34;48.80;;;26.90;;
61358;SDS011;47228;46.762;23.598;2024-01-30T03:30:02;45.40;;;24.90;;
61358;SDS011;47228;46.762;23.598;2024-01-30T03:32:31;46.30;;;24.50;;
61358;SDS011;47228;46.762;23.598;2024-01-30T03:34:59;43.50;;;24.00;;
61358;SDS011;47228;46.762;23.598;2024-01-30T03:37:27;50.00;;;27.00;;
61358;SDS011;47228;46.762;23.598;2024-01-30T03:39:56;47.90;;;26.30;;
61358;SDS011;47228;46.762;23.598;2024-01-30T03:42:24;43.50;;;26.30;;
61358;SDS011;47228;46.762;23.598;2024-01-30T03:44:53;49.10;;;26.80;;
61358;SDS011;47228;46.762;23.598;2024-01-30T03:47:22;58.50;;;31.80;;
61358;SDS011;47228;46.762;23.598;2024-01-30T03:49:50;59.10;;;33.00;;
61358;SDS011;47228;46.762;23.598;2024-01-30T03:52:19;50.10;;;27.80;;
61358;SDS011;47228;46.762;23.598;2024-01-30T03:54:47;52.20;;;29.40;;
61358;SDS011;47228;46.762;23.598;2024-01-30T03:57:15;46.60;;;24.60;;
61358;SDS011;47228;46.762;23.598;2024-01-30T03:59:43;46.20;;;24.50;;
61358;SDS011;47228;46.762;23.598;2024-01-30T04:02:11;41.10;;;22.80;;
61358;SDS011;47228;46.762;23.598;2024-01-30T04:04:40;39.00;;;21.60;;
61358;SDS011;47228;46.762;23.598;2024-01-30T04:07:08;45.70;;;23.80;;
61358;SDS011;47228;46.762;23.598;2024-01-30T04:09:37;38.50;;;21.10;;
61358;SDS011;47228;46.762;23.598;2024-01-30T04:12:06;40.20;;;21.40;;
61358;SDS011;47228;46.762;23.598;2024-01-30T04:14:34;43.20;;;23.40;;
61358;SDS011;47228;46.762;23.598;2024-01-30T04:17:03;41.30;;;21.60;;
61358;SDS011;47228;46.762;23.598;2024-01-30T04:19:31;42.30;;;22.20;;
61358;SDS011;47228;46.762;23.598;2024-01-30T04:21:59;42.70;;;22.70;;
61358;SDS011;47228;46.762;23.598;2024-01-30T04:24:30;45.00;;;24.00;;
61358;SDS011;47228;46.762;23.598;2024-01-30T04:26:58;45.90;;;23.60;;
61358;SDS011;47228;46.762;23.598;2024-01-30T04:29:27;40.10;;;22.50;;
61358;SDS011;47228;46.762;23.598;2024-01-30T04:31:55;42.20;;;21.90;;
61358;SDS011;47228;46.762;23.598;2024-01-30T04:34:23;40.80;;;21.90;;
61358;SDS011;47228;46.762;23.598;2024-01-30T04:36:52;39.30;;;21.00;;
61358;SDS011;47228;46.762;23.598;2024-01-30T04:39:20;39.40;;;21.00;;
61358;SDS011;47228;46.762;23.598;2024-01-30T04:41:48;40.10;;;21.90;;
61358;SDS011;47228;46.762;23.598;2024-01-30T04:44:16;38.30;;;20.50;;
61358;SDS011;47228;46.762;23.598;2024-01-30T04:46:44;37.90;;;21.20;;
61358;SDS011;47228;46.762;23.598;2024-01-30T04:49:12;37.40;;;21.30;;
61358;SDS011;47228;46.762;23.598;2024-01-30T04:51:41;36.80;;;20.50;;
61358;SDS011;47228;46.762;23.598;2024-01-30T04:54:09;42.10;;;21.50;;
61358;SDS011;47228;46.762;23.598;2024-01-30T04:56:37;37.80;;;20.70;;
61358;SDS011;47228;46.762;23.598;2024-01-30T04:59:06;40.40;;;21.50;;
61358;SDS011;47228;46.762;23.598;2024-01-30T05:01:36;38.50;;;19.90;;
61358;SDS011;47228;46.762;23.598;2024-01-30T05:04:06;37.40;;;20.20;;
61358;SDS011;47228;46.762;23.598;2024-01-30T05:06:36;31.80;;;17.70;;
61358;SDS011;47228;46.762;23.598;2024-01-30T05:09:05;35.80;;;19.10;;
61358;SDS011;47228;46.762;23.598;2024-01-30T05:11:40;36.70;;;19.50;;
61358;SDS011;47228;46.762;23.598;2024-01-30T05:14:09;34.80;;;19.60;;
61358;SDS011;47228;46.762;23.598;2024-01-30T05:16:38;38.00;;;19.60;;
61358;SDS011;47228;46.762;23.598;2024-01-30T05:19:07;36.20;;;19.00;;
61358;SDS011;47228;46.762;23.598;2024-01-30T05:21:35;36.30;;;19.90;;
61358;SDS011;47228;46.762;23.598;2024-01-30T05:24:03;37.10;;;19.10;;
61358;SDS011;47228;46.762;23.598;2024-01-30T05:26:31;31.30;;;17.80;;
61358;SDS011;47228;46.762;23.598;2024-01-30T05:28:59;28.20;;;16.30;;
61358;SDS011;47228;46.762;23.598;2024-01-30T05:31:27;32.50;;;17.00;;
61358;SDS011;47228;46.762;23.598;2024-01-30T05:33:56;33.00;;;18.20;;
61358;SDS011;47228;46.762;23.598;2024-01-30T05:36:24;35.20;;;18.10;;
61358;SDS011;47228;46.762;23.598;2024-01-30T05:38:52;47.30;;;23.00;;
61358;SDS011;47228;46.762;23.598;2024-01-30T05:41:20;40.10;;;19.40;;
61358;SDS011;47228;46.762;23.598;2024-01-30T05:43:48;33.20;;;18.00;;
61358;SDS011;47228;46.762;23.598;2024-01-30T05:46:16;28.20;;;17.20;;
61358;SDS011;47228;46.762;23.598;2024-01-30T05:48:48;32.40;;;16.90;;
61358;SDS011;47228;46.762;23.598;2024-01-30T05:51:17;29.00;;;16.60;;
61358;SDS011;47228;46.762;23.598;2024-01-30T05:53:45;28.40;;;15.30;;
61358;SDS011;47228;46.762;23.598;2024-01-30T05:56:12;27.10;;;15.70;;
61358;SDS011;47228;46.762;23.598;2024-01-30T05:58:41;27.60;;;16.00;;
61358;SDS011;47228;46.762;23.598;2024-01-30T06:01:10;30.60;;;16.80;;
61358;SDS011;47228;46.762;23.598;2024-01-30T06:03:39;29.60;;;17.30;;
61358;SDS011;47228;46.762;23.598;2024-01-30T06:06:07;32.30;;;17.00;;
61358;SDS011;47228;46.762;23.598;2024-01-30T06:08:35;26.30;;;15.90;;
61358;SDS011;47228;46.762;23.598;2024-01-30T06:11:03;31.20;;;16.50;;
61358;SDS011;47228;46.762;23.598;2024-01-30T06:13:31;24.10;;;15.00;;
61358;SDS011;47228;46.762;23.598;2024-01-30T06:16:00;26.50;;;15.90;;
61358;SDS011;47228;46.762;23.598;2024-01-30T06:18:28;26.30;;;15.10;;
61358;SDS011;47228;46.762;23.598;2024-01-30T06:20:58;26.30;;;15.10;;
61358;SDS011;47228;46.762;23.598;2024-01-30T06:23:27;25.40;;;14.80;;
61358;SDS011;47228;46.762;23.598;2024-01-30T06:25:55;25.20;;;15.20;;
61358;SDS011;47228;46.762;23.598;2024-01-30T06:28:23;28.20;;;14.60;;
61358;SDS011;47228;46.762;23.598;2024-01-30T06:30:51;24.50;;;14.80;;
61358;SDS011;47228;46.762;23.598;2024-01-30T06:33:19;22.30;;;13.70;;
61358;SDS011;47228;46.762;23.598;2024-01-30T06:35:48;29.50;;;15.40;;
61358;SDS011;47228;46.762;23.598;2024-01-30T06:38:16;28.90;;;14.90;;
61358;SDS011;47228;46.762;23.598;2024-01-30T06:40:44;25.00;;;14.90;;
61358;SDS011;47228;46.762;23.598;2024-01-30T06:43:12;27.80;;;15.50;;
61358;SDS011;47228;46.762;23.598;2024-01-30T06:45:40;27.40;;;15.80;;
61358;SDS011;47228;46.762;23.598;2024-01-30T06:48:10;24.70;;;15.70;;
61358;SDS011;47228;46.762;23.598;2024-01-30T06:50:38;28.30;;;16.20;;
61358;SDS011;47228;46.762;23.598;2024-01-30T06:53:06;28.80;;;17.20;;
61358;SDS011;47228;46.762;23.598;2024-01-30T06:55:34;28.00;;;15.90;;
61358;SDS011;47228;46.762;23.598;2024-01-30T06:58:02;26.40;;;16.20;;
61358;SDS011;47228;46.762;23.598;2024-01-30T07:00:33;25.90;;;15.80;;
61358;SDS011;47228;46.762;23.598;2024-01-30T07:03:02;30.40;;;16.40;;
61358;SDS011;47228;46.762;23.598;2024-01-30T07:05:30;30.10;;;15.80;;
61358;SDS011;47228;46.762;23.598;2024-01-30T07:07:58;29.60;;;15.40;;
61358;SDS011;47228;46.762;23.598;2024-01-30T07:10:26;30.20;;;15.40;;
61358;SDS011;47228;46.762;23.598;2024-01-30T07:12:55;28.30;;;17.30;;
61358;SDS011;47228;46.762;23.598;2024-01-30T07:15:23;30.30;;;16.50;;
61358;SDS011;47228;46.762;23.598;2024-01-30T07:17:51;32.10;;;17.60;;
61358;SDS011;47228;46.762;23.598;2024-01-30T07:20:19;31.40;;;18.20;;
61358;SDS011;47228;46.762;23.598;2024-01-30T07:22:48;35.30;;;18.40;;
61358;SDS011;47228;46.762;23.598;2024-01-30T07:25:16;32.60;;;18.10;;
61358;SDS011;47228;46.762;23.598;2024-01-30T07:27:45;34.60;;;18.50;;
61358;SDS011;47228;46.762;23.598;2024-01-30T07:30:13;31.00;;;17.10;;
61358;SDS011;47228;46.762;23.598;2024-01-30T07:32:41;30.20;;;15.80;;
61358;SDS011;47228;46.762;23.598;2024-01-30T07:35:09;29.60;;;15.90;;
61358;SDS011;47228;46.762;23.598;2024-01-30T07:37:39;27.30;;;15.10;;
61358;SDS011;47228;46.762;23.598;2024-01-30T07:40:07;23.60;;;13.50;;
61358;SDS011;47228;46.762;23.598;2024-01-30T07:42:36;28.80;;;14.70;;
61358;SDS011;47228;46.762;23.598;2024-01-30T07:45:04;22.60;;;13.30;;
61358;SDS011;47228;46.762;23.598;2024-01-30T07:47:32;28.50;;;15.20;;
61358;SDS011;47228;46.762;23.598;2024-01-30T07:50:01;25.10;;;13.10;;
61358;SDS011;47228;46.762;23.598;2024-01-30T07:52:29;20.70;;;10.00;;
61358;SDS011;47228;46.762;23.598;2024-01-30T07:54:57;17.20;;;9.50;;
61358;SDS011;47228;46.762;23.598;2024-01-30T07:57:25;18.50;;;10.00;;
61358;SDS011;47228;46.762;23.598;2024-01-30T07:59:54;24.30;;;11.70;;
61358;SDS011;47228;46.762;23.598;2024-01-30T08:02:22;18.30;;;10.40;;
61358;SDS011;47228;46.762;23.598;2024-01-30T08:04:50;19.00;;;10.70;;
61358;SDS011;47228;46.762;23.598;2024-01-30T08:07:18;17.50;;;9.50;;
61358;SDS011;47228;46.762;23.598;2024-01-30T08:09:47;18.00;;;10.20;;
61358;SDS011;47228;46.762;23.598;2024-01-30T08:12:16;17.00;;;11.00;;
61358;SDS011;47228;46.762;23.598;2024-01-30T08:14:44;19.60;;;11.10;;
61358;SDS011;47228;46.762;23.598;2024-01-30T08:17:12;18.60;;;10.50;;
61358;SDS011;47228;46.762;23.598;2024-01-30T08:19:40;19.50;;;11.80;;
61358;SDS011;47228;46.762;23.598;2024-01-30T08:22:08;23.90;;;13.10;;
61358;SDS011;47228;46.762;23.598;2024-01-30T08:24:36;22.60;;;13.80;;
61358;SDS011;47228;46.762;23.598;2024-01-30T08:27:05;26.50;;;14.10;;
61358;SDS011;47228;46.762;23.598;2024-01-30T08:29:34;25.40;;;13.00;;
61358;SDS011;47228;46.762;23.598;2024-01-30T08:32:02;22.80;;;12.30;;
61358;SDS011;47228;46.762;23.598;2024-01-30T08:34:31;24.10;;;14.00;;
61358;SDS011;47228;46.762;23.598;2024-01-30T08:37:00;23.90;;;13.50;;
61358;SDS011;47228;46.762;23.598;2024-01-30T08:39:28;23.20;;;13.00;;
61358;SDS011;47228;46.762;23.598;2024-01-30T08:41:56;21.70;;;13.30;;
61358;SDS011;47228;46.762;23.598;2024-01-30T08:44:25;23.50;;;14.00;;
61358;SDS011;47228;46.762;23.598;2024-01-30T08:46:55;24.50;;;13.10;;
61358;SDS011;47228;46.762;23.598;2024-01-30T08:49:24;23.40;;;13.70;;
61358;SDS011;47228;46.762;23.598;2024-01-30T08:51:52;21.50;;;12.70;;
61358;SDS011;47228;46.762;23.598;2024-01-30T08:54:21;20.60;;;11.90;;
61358;SDS011;47228;46.762;23.598;2024-01-30T08:56:49;21.40;;;12.20;;
61358;SDS011;47228;46.762;23.598;2024-01-30T08:59:20;20.40;;;11.00;;
61358;SDS011;47228;46.762;23.598;2024-01-30T09:01:48;18.80;;;11.40;;
61358;SDS011;47228;46.762;23.598;2024-01-30T09:04:30;19.70;;;11.20;;
61358;SDS011;47228;46.762;23.598;2024-01-30T09:06:58;19.20;;;12.30;;
61358;SDS011;47228;46.762;23.598;2024-01-30T09:09:26;22.90;;;12.20;;
61358;SDS011;47228;46.762;23.598;2024-01-30T09:11:54;21.50;;;12.10;;
61358;SDS011;47228;46.762;23.598;2024-01-30T09:14:23;25.10;;;14.20;;
61358;SDS011;47228;46.762;23.598;2024-01-30T09:16:51;23.20;;;13.50;;
61358;SDS011;47228;46.762;23.598;2024-01-30T09:19:19;22.00;;;12.90;;
61358;SDS011;47228;46.762;23.598;2024-01-30T09:21:47;22.60;;;14.00;;
61358;SDS011;47228;46.762;23.598;2024-01-30T09:24:15;23.20;;;15.80;;
61358;SDS011;47228;46.762;23.598;2024-01-30T09:26:43;26.80;;;16.80;;
61358;SDS011;47228;46.762;23.598;2024-01-30T09:29:11;31.30;;;19.00;;
61358;SDS011;47228;46.762;23.598;2024-01-30T09:31:42;34.20;;;18.50;;
61358;SDS011;47228;46.762;23.598;2024-01-30T09:34:12;34.30;;;19.70;;
61358;SDS011;47228;46.762;23.598;2024-01-30T09:36:40;31.40;;;20.20;;
61358;SDS011;47228;46.762;23.598;2024-01-30T09:39:08;34.30;;;18.80;;
61358;SDS011;47228;46.762;23.598;2024-01-30T09:41:40;25.90;;;16.60;;
61358;SDS011;47228;46.762;23.598;2024-01-30T09:44:16;27.50;;;16.80;;
61358;SDS011;47228;46.762;23.598;2024-01-30T09:46:45;30.60;;;17.00;;
61358;SDS011;47228;46.762;23.598;2024-01-30T09:49:17;26.20;;;16.40;;
61358;SDS011;47228;46.762;23.598;2024-01-30T09:51:48;28.30;;;16.90;;
61358;SDS011;47228;46.762;23.598;2024-01-30T09:54:17;24.80;;;14.50;;
61358;SDS011;47228;46.762;23.598;2024-01-30T09:56:47;27.60;;;14.60;;
61358;SDS011;47228;46.762;23.598;2024-01-30T09:59:15;24.70;;;14.10;;
61358;SDS011;47228;46.762;23.598;2024-01-30T10:01:43;23.50;;;14.10;;
61358;SDS011;47228;46.762;23.598;2024-01-30T10:04:12;21.30;;;14.30;;
61358;SDS011;47228;46.762;23.598;2024-01-30T10:06:40;24.40;;;15.60;;
61358;SDS011;47228;46.762;23.598;2024-01-30T10:09:10;28.00;;;16.40;;
61358;SDS011;47228;46.762;23.598;2024-01-30T10:11:38;29.70;;;15.90;;
61358;SDS011;47228;46.762;23.598;2024-01-30T10:14:06;27.90;;;16.10;;
61358;SDS011;47228;46.762;23.598;2024-01-30T10:16:35;26.10;;;16.40;;
61358;SDS011;47228;46.762;23.598;2024-01-30T10:19:03;29.00;;;16.10;;
61358;SDS011;47228;46.762;23.598;2024-01-30T10:21:31;29.80;;;16.00;;
61358;SDS011;47228;46.762;23.598;2024-01-30T10:23:59;24.00;;;15.90;;
61358;SDS011;47228;46.762;23.598;2024-01-30T10:26:28;25.50;;;15.20;;
61358;SDS011;47228;46.762;23.598;2024-01-30T10:28:57;29.00;;;16.10;;
61358;SDS011;47228;46.762;23.598;2024-01-30T10:31:25;26.90;;;17.00;;
61358;SDS011;47228;46.762;23.598;2024-01-30T10:33:53;27.50;;;16.30;;
61358;SDS011;47228;46.762;23.598;2024-01-30T10:36:41;29.20;;;16.00;;
61358;SDS011;47228;46.762;23.598;2024-01-30T10:39:14;27.20;;;16.90;;
61358;SDS011;47228;46.762;23.598;2024-01-30T10:41:45;23.00;;;15.40;;
61358;SDS011;47228;46.762;23.598;2024-01-30T10:44:18;26.40;;;16.50;;
61358;SDS011;47228;46.762;23.598;2024-01-30T10:46:51;26.20;;;16.40;;
61358;SDS011;47228;46.762;23.598;2024-01-30T10:49:28;27.70;;;16.10;;
61358;SDS011;47228;46.762;23.598;2024-01-30T10:51:57;27.00;;;17.20;;
61358;SDS011;47228;46.762;23.598;2024-01-30T10:54:26;25.90;;;16.20;;
61358;SDS011;47228;46.762;23.598;2024-01-30T10:56:56;27.10;;;16.40;;
61358;SDS011;47228;46.762;23.598;2024-01-30T10:59:27;30.70;;;17.20;;
61358;SDS011;47228;46.762;23.598;2024-01-30T11:01:58;22.20;;;14.70;;
61358;SDS011;47228;46.762;23.598;2024-01-30T11:04:35;23.00;;;15.10;;
61358;SDS011;47228;46.762;23.598;2024-01-30T11:07:19;26.00;;;16.40;;
61358;SDS011;47228;46.762;23.598;2024-01-30T11:09:52;27.30;;;16.30;;
61358;SDS011;47228;46.762;23.598;2024-01-30T11:12:33;27.20;;;16.70;;
61358;SDS011;47228;46.762;23.598;2024-01-30T11:15:15;23.80;;;16.30;;
61358;SDS011;47228;46.762;23.598;2024-01-30T11:17:45;25.20;;;14.90;;
61358;SDS011;47228;46.762;23.598;2024-01-30T11:20:27;24.40;;;15.70;;
61358;SDS011;47228;46.762;23.598;2024-01-30T11:23:00;23.70;;;15.70;;
61358;SDS011;47228;46.762;23.598;2024-01-30T11:25:34;24.00;;;14.70;;
61358;SDS011;47228;46.762;23.598;2024-01-30T11:28:04;26.60;;;16.60;;
61358;SDS011;47228;46.762;23.598;2024-01-30T11:30:35;26.20;;;16.20;;
61358;SDS011;47228;46.762;23.598;2024-01-30T11:33:07;24.30;;;15.40;;
61358;SDS011;47228;46.762;23.598;2024-01-30T11:38:18;24.50;;;15.60;;
61358;SDS011;47228;46.762;23.598;2024-01-30T11:40:50;21.50;;;13.90;;
61358;SDS011;47228;46.762;23.598;2024-01-30T11:43:22;26.40;;;16.60;;
61358;SDS011;47228;46.762;23.598;2024-01-30T11:45:56;26.30;;;15.40;;
61358;SDS011;47228;46.762;23.598;2024-01-30T11:48:24;25.60;;;15.10;;
61358;SDS011;47228;46.762;23.598;2024-01-30T11:50:54;24.20;;;14.90;;
61358;SDS011;47228;46.762;23.598;2024-01-30T11:53:22;21.40;;;13.50;;
61358;SDS011;47228;46.762;23.598;2024-01-30T11:55:50;25.50;;;14.60;;
61358;SDS011;47228;46.762;23.598;2024-01-30T11:58:19;24.00;;;15.70;;
61358;SDS011;47228;46.762;23.598;2024-01-30T12:00:57;25.90;;;15.00;;
61358;SDS011;47228;46.762;23.598;2024-01-30T12:03:33;26.00;;;15.60;;
61358;SDS011;47228;46.762;23.598;2024-01-30T12:06:02;25.20;;;13.90;;
61358;SDS011;47228;46.762;23.598;2024-01-30T12:08:34;22.40;;;14.20;;
61358;SDS011;47228;46.762;23.598;2024-01-30T12:11:06;23.90;;;14.30;;
61358;SDS011;47228;46.762;23.598;2024-01-30T12:13:34;22.80;;;14.80;;
61358;SDS011;47228;46.762;23.598;2024-01-30T12:16:03;22.60;;;14.60;;
61358;SDS011;47228;46.762;23.598;2024-01-30T12:18:31;21.90;;;14.00;;
61358;SDS011;47228;46.762;23.598;2024-01-30T12:21:00;24.80;;;14.50;;
61358;SDS011;47228;46.762;23.598;2024-01-30T12:26:41;21.40;;;13.40;;
61358;SDS011;47228;46.762;23.598;2024-01-30T12:29:10;22.90;;;13.90;;
61358;SDS011;47228;46.762;23.598;2024-01-30T12:31:38;23.40;;;14.10;;
61358;SDS011;47228;46.762;23.598;2024-01-30T12:34:09;22.40;;;13.70;;
61358;SDS011;47228;46.762;23.598;2024-01-30T12:36:41;25.40;;;14.70;;
61358;SDS011;47228;46.762;23.598;2024-01-30T12:39:13;19.10;;;13.40;;
61358;SDS011;47228;46.762;23.598;2024-01-30T12:41:42;28.00;;;14.90;;
61358;SDS011;47228;46.762;23.598;2024-01-30T12:44:11;23.40;;;14.60;;
61358;SDS011;47228;46.762;23.598;2024-01-30T12:46:42;22.70;;;13.80;;
61358;SDS011;47228;46.762;23.598;2024-01-30T12:49:12;21.30;;;13.80;;
61358;SDS011;47228;46.762;23.598;2024-01-30T12:51:41;23.90;;;14.30;;
61358;SDS011;47228;46.762;23.598;2024-01-30T12:54:09;25.50;;;15.20;;
61358;SDS011;47228;46.762;23.598;2024-01-30T12:56:40;23.50;;;15.00;;
61358;SDS011;47228;46.762;23.598;2024-01-30T12:59:08;20.80;;;13.80;;
61358;SDS011;47228;46.762;23.598;2024-01-30T13:01:36;21.40;;;13.90;;
61358;SDS011;47228;46.762;23.598;2024-01-30T13:04:04;21.10;;;13.60;;
61358;SDS011;47228;46.762;23.598;2024-01-30T13:06:32;23.00;;;14.00;;
61358;SDS011;47228;46.762;23.598;2024-01-30T13:09:00;22.20;;;14.90;;
61358;SDS011;47228;46.762;23.598;2024-01-30T13:11:28;23.10;;;14.00;;
61358;SDS011;47228;46.762;23.598;2024-01-30T13:13:57;21.40;;;14.20;;
61358;SDS011;47228;46.762;23.598;2024-01-30T13:16:26;19.90;;;13.10;;
61358;SDS011;47228;46.762;23.598;2024-01-30T13:18:54;18.30;;;12.20;;
61358;SDS011;47228;46.762;23.598;2024-01-30T13:21:23;20.90;;;13.80;;
61358;SDS011;47228;46.762;23.598;2024-01-30T13:23:51;23.20;;;12.60;;
61358;SDS011;47228;46.762;23.598;2024-01-30T13:26:22;22.00;;;13.30;;
61358;SDS011;47228;46.762;23.598;2024-01-30T13:28:50;20.00;;;12.70;;
61358;SDS011;47228;46.762;23.598;2024-01-30T13:31:19;20.60;;;12.40;;
61358;SDS011;47228;46.762;23.598;2024-01-30T13:33:47;19.40;;;12.00;;
61358;SDS011;47228;46.762;23.598;2024-01-30T13:36:16;19.30;;;12.90;;
61358;SDS011;47228;46.762;23.598;2024-01-30T13:38:45;20.70;;;13.60;;
61358;SDS011;47228;46.762;23.598;2024-01-30T13:41:13;19.80;;;12.80;;
61358;SDS011;47228;46.762;23.598;2024-01-30T13:43:46;19.80;;;12.50;;
61358;SDS011;47228;46.762;23.598;2024-01-30T13:46:14;19.80;;;12.70;;
61358;SDS011;47228;46.762;23.598;2024-01-30T13:48:42;18.60;;;11.80;;
61358;SDS011;47228;46.762;23.598;2024-01-30T13:51:11;19.20;;;11.90;;
61358;SDS011;47228;46.762;23.598;2024-01-30T13:53:41;20.50;;;11.70;;
61358;SDS011;47228;46.762;23.598;2024-01-30T13:56:09;19.10;;;12.00;;
61358;SDS011;47228;46.762;23.598;2024-01-30T13:58:50;19.10;;;12.60;;
61358;SDS011;47228;46.762;23.598;2024-01-30T14:01:26;19.70;;;12.70;;
61358;SDS011;47228;46.762;23.598;2024-01-30T14:03:54;19.70;;;12.70;;
61358;SDS011;47228;46.762;23.598;2024-01-30T14:06:22;18.80;;;12.50;;
61358;SDS011;47228;46.762;23.598;2024-01-30T14:08:50;20.00;;;12.80;;
61358;SDS011;47228;46.762;23.598;2024-01-30T14:11:27;20.40;;;11.90;;
61358;SDS011;47228;46.762;23.598;2024-01-30T14:13:55;17.90;;;11.80;;
61358;SDS011;47228;46.762;23.598;2024-01-30T14:16:23;18.50;;;12.30;;
61358;SDS011;47228;46.762;23.598;2024-01-30T14:18:57;20.60;;;12.10;;
61358;SDS011;47228;46.762;23.598;2024-01-30T14:23:54;19.50;;;11.80;;
61358;SDS011;47228;46.762;23.598;2024-01-30T14:26:23;21.10;;;13.50;;
61358;SDS011;47228;46.762;23.598;2024-01-30T14:28:51;19.70;;;12.00;;